Time;durP1;ratioP1;P1;durP2;ratioP2;P2;SDS_P1;SDS_P2;PMS_P1;PMS_P2;Temp;Humidity;BMP_temperature;BMP_pressure;BME280_temperature;BME280_humidity;BME280_pressure;Samples;Min_cycle;Max_cycle;Signal;HPM_P1;HPM_P2
2022/07/09 00:00:58;;;;;;;5.22;4.70;;;;;;;15.52;82.23;102120.19;4967474;28;20010;-67
2022/07/09 00:03:23;;;;;;;6.60;4.63;;;;;;;15.42;82.59;102124.66;4982750;28;20691;-67
2022/07/09 00:05:49;;;;;;;5.10;4.38;;;;;;;15.39;82.74;102123.09;4988273;28;20754;-68
2022/07/09 00:08:14;;;;;;;4.65;4.13;;;;;;;15.42;83.19;102122.81;4981244;28;20013;-68
2022/07/09 00:10:40;;;;;;;4.80;4.40;;;;;;;15.49;82.84;102119.63;4988743;28;20884;-67
2022/07/09 00:13:05;;;;;;;5.10;4.20;;;;;;;15.32;82.91;102116.63;4980883;28;20016;-67
2022/07/09 00:15:30;;;;;;;4.38;4.05;;;;;;;15.25;83.11;102116.31;4978649;28;20278;-67
2022/07/09 00:17:56;;;;;;;4.50;4.10;;;;;;;15.20;83.32;102123.00;4961965;28;20014;-67
2022/07/09 00:20:21;;;;;;;4.95;4.32;;;;;;;15.25;83.13;102120.81;4972658;28;20002;-67
2022/07/09 00:22:47;;;;;;;7.82;4.45;;;;;;;15.25;83.21;102121.63;4960976;28;20034;-67
2022/07/09 00:25:12;;;;;;;4.47;4.10;;;;;;;15.25;83.17;102124.31;4950031;28;20370;-66
2022/07/09 00:27:37;;;;;;;4.05;3.75;;;;;;;15.30;83.02;102115.91;4961182;28;20084;-67
2022/07/09 00:30:03;;;;;;;4.30;3.90;;;;;;;15.26;83.03;102117.16;4967567;28;20188;-67
2022/07/09 00:32:28;;;;;;;4.63;4.00;;;;;;;15.25;82.82;102113.63;4922427;28;20023;-67
2022/07/09 00:34:54;;;;;;;6.57;3.55;;;;;;;15.17;82.75;102116.13;4963659;28;20490;-68
2022/07/09 00:37:19;;;;;;;4.75;3.70;;;;;;;15.08;83.24;102112.44;4961751;28;20026;-66
2022/07/09 00:39:45;;;;;;;5.53;3.88;;;;;;;15.07;83.18;102108.09;4960732;28;20018;-68
2022/07/09 00:42:11;;;;;;;4.50;3.80;;;;;;;15.00;83.35;102104.25;4952549;28;20088;-66
2022/07/09 00:44:36;;;;;;;4.57;3.97;;;;;;;14.96;83.54;102110.00;4945319;28;21026;-67
2022/07/09 00:47:03;;;;;;;5.72;4.05;;;;;;;14.94;83.71;102104.78;4960811;28;20025;-66
2022/07/09 00:49:29;;;;;;;4.10;3.80;;;;;;;14.92;83.61;102101.44;4962196;28;20046;-68
2022/07/09 00:51:55;;;;;;;4.20;3.60;;;;;;;14.91;83.75;102095.22;4966075;28;20553;-67
2022/07/09 00:54:21;;;;;;;3.95;3.60;;;;;;;14.91;83.86;102097.06;4964769;28;20034;-66
2022/07/09 00:56:46;;;;;;;6.00;3.53;;;;;;;14.92;83.65;102094.25;4949240;28;20207;-68
2022/07/09 00:59:13;;;;;;;3.67;3.47;;;;;;;14.89;83.49;102099.00;4965175;28;20116;-67
2022/07/09 01:01:39;;;;;;;3.70;3.40;;;;;;;14.87;83.78;102090.31;4982722;28;20021;-67
2022/07/09 01:04:05;;;;;;;4.00;3.70;;;;;;;14.88;83.68;102089.34;4976414;28;20544;-67
2022/07/09 01:06:30;;;;;;;5.15;3.70;;;;;;;14.90;83.45;102090.03;4974941;28;20086;-67
2022/07/09 01:08:56;;;;;;;4.15;3.80;;;;;;;14.87;83.27;102085.81;4984271;28;20002;-68
2022/07/09 01:11:21;;;;;;;3.88;3.58;;;;;;;14.80;83.52;102083.81;4984954;28;20330;-66
2022/07/09 01:13:47;;;;;;;3.95;3.65;;;;;;;14.75;83.59;102082.38;4956934;28;20104;-67
2022/07/09 01:16:15;;;;;;;3.45;3.20;;;;;;;14.68;83.79;102086.56;4972948;28;20025;-67
2022/07/09 01:18:44;;;;;;;3.38;3.10;;;;;;;14.68;84.40;102077.69;4963706;28;20037;-67
2022/07/09 01:21:09;;;;;;;3.45;3.10;;;;;;;14.73;84.24;102086.16;4947210;28;20006;-67
2022/07/09 01:23:34;;;;;;;4.07;3.05;;;;;;;14.71;83.53;102080.97;4965563;28;20402;-68
2022/07/09 01:26:00;;;;;;;4.72;2.90;;;;;;;14.70;83.55;102087.25;4963032;28;20034;-67
2022/07/09 01:28:26;;;;;;;3.13;2.88;;;;;;;14.71;83.13;102088.97;4946023;28;20071;-68
2022/07/09 01:30:51;;;;;;;5.90;2.90;;;;;;;14.64;83.34;102074.47;4950613;28;20010;-68
2022/07/09 01:33:17;;;;;;;3.20;2.90;;;;;;;14.56;83.91;102082.22;4948410;28;20022;-67
2022/07/09 01:35:42;;;;;;;3.15;2.95;;;;;;;14.51;84.22;102087.09;4972113;28;20333;-67
2022/07/09 01:38:08;;;;;;;3.30;3.00;;;;;;;14.50;84.05;102075.59;4982174;28;20396;-67
2022/07/09 01:40:33;;;;;;;2.95;2.85;;;;;;;14.54;83.40;102079.69;4982750;28;20791;-67
2022/07/09 01:42:59;;;;;;;4.40;3.00;;;;;;;14.54;83.66;102079.69;4960328;28;20045;-66
2022/07/09 01:45:24;;;;;;;3.40;3.10;;;;;;;14.53;83.50;102077.16;4980088;28;20260;-67
2022/07/09 01:47:49;;;;;;;2.92;2.70;;;;;;;14.47;83.94;102069.69;4962832;28;20428;-67
2022/07/09 01:50:15;;;;;;;4.13;2.65;;;;;;;14.48;83.93;102069.59;4950263;28;20795;-67
2022/07/09 01:52:41;;;;;;;4.03;2.53;;;;;;;14.40;83.98;102064.88;4949944;28;20137;-66
2022/07/09 01:55:06;;;;;;;2.88;2.67;;;;;;;14.44;84.06;102068.16;4949108;28;20414;-68
2022/07/09 01:57:32;;;;;;;4.03;2.60;;;;;;;14.59;83.49;102065.97;4964803;28;20024;-67
2022/07/09 01:59:57;;;;;;;3.15;2.83;;;;;;;14.64;82.95;102074.47;4961577;28;20006;-67
2022/07/09 02:02:23;;;;;;;3.00;2.80;;;;;;;14.63;82.66;102070.09;4985212;28;20843;-67
2022/07/09 02:04:48;;;;;;;2.65;2.45;;;;;;;14.76;82.31;102068.09;4961930;28;20998;-67
2022/07/09 02:07:14;;;;;;;3.03;2.33;;;;;;;14.70;82.34;102067.78;4932491;28;20011;-67
2022/07/09 02:09:39;;;;;;;2.67;2.47;;;;;;;14.60;82.54;102062.34;4943913;28;20165;-67
2022/07/09 02:12:05;;;;;;;2.65;2.45;;;;;;;14.54;82.84;102052.22;4966729;28;20472;-67
2022/07/09 02:14:31;;;;;;;2.72;2.60;;;;;;;14.51;83.35;102055.13;4943445;28;20435;-67
2022/07/09 02:16:56;;;;;;;2.97;2.63;;;;;;;14.37;83.55;102051.00;4959099;28;20293;-67
2022/07/09 02:19:22;;;;;;;4.10;2.88;;;;;;;14.40;83.78;102048.91;4959406;28;20010;-67
2022/07/09 02:21:47;;;;;;;2.90;2.40;;;;;;;14.40;83.64;102051.56;4980240;28;20508;-68
2022/07/09 02:24:12;;;;;;;2.92;2.60;;;;;;;14.39;83.62;102049.88;4957452;28;20034;-66
2022/07/09 02:26:38;;;;;;;2.90;2.70;;;;;;;14.35;83.54;102051.09;4958761;28;20474;-67
2022/07/09 02:29:04;;;;;;;2.80;2.60;;;;;;;14.29;83.97;102043.63;4926116;28;20084;-66
2022/07/09 02:31:29;;;;;;;3.88;2.60;;;;;;;14.26;84.06;102049.22;4965057;28;20365;-67
2022/07/09 02:33:55;;;;;;;2.78;2.40;;;;;;;14.32;84.29;102048.69;4947026;28;20747;-67
2022/07/09 02:36:20;;;;;;;4.03;2.53;;;;;;;14.31;84.23;102054.16;4963020;28;20014;-68
2022/07/09 02:38:46;;;;;;;3.13;2.78;;;;;;;14.26;84.42;102046.56;4947304;28;20034;-66
2022/07/09 02:41:11;;;;;;;2.42;2.33;;;;;;;14.27;84.79;102042.94;4943236;28;20011;-67
2022/07/09 02:43:37;;;;;;;2.90;2.70;;;;;;;14.26;85.14;102039.41;4965041;28;20186;-67
2022/07/09 02:46:04;;;;;;;3.10;2.42;;;;;;;14.26;85.04;102039.41;4943590;28;20022;-67
2022/07/09 02:48:30;;;;;;;2.75;2.55;;;;;;;14.32;85.12;102038.06;4930131;28;20053;-68
2022/07/09 02:50:55;;;;;;;3.17;2.70;;;;;;;14.39;85.15;102033.06;4946533;28;20030;-67
2022/07/09 02:53:21;;;;;;;2.50;2.40;;;;;;;14.46;84.96;102036.06;4945489;28;20026;-67
2022/07/09 02:55:46;;;;;;;2.83;2.60;;;;;;;14.47;84.99;102037.72;4931088;28;20853;-67
2022/07/09 02:58:12;;;;;;;2.63;2.42;;;;;;;14.50;85.10;102048.13;4943857;28;20910;-67
2022/07/09 03:00:39;;;;;;;2.70;2.50;;;;;;;14.55;85.00;102033.44;4931087;28;20079;-67
2022/07/09 03:03:05;;;;;;;2.50;2.30;;;;;;;14.54;85.21;102038.91;4947337;28;20026;-67
2022/07/09 03:05:30;;;;;;;3.25;2.95;;;;;;;14.52;85.41;102033.69;4942378;28;20049;-67
2022/07/09 03:07:56;;;;;;;2.80;2.60;;;;;;;14.50;85.79;102034.81;4916783;28;20019;-66
2022/07/09 03:10:21;;;;;;;2.80;2.58;;;;;;;14.50;86.21;102029.50;4911221;28;20714;-67
2022/07/09 03:12:46;;;;;;;3.00;2.70;;;;;;;14.55;86.27;102027.25;4895222;28;20806;-66
2022/07/09 03:15:14;;;;;;;2.80;2.60;;;;;;;14.59;85.93;102034.00;4956935;28;20213;-68
2022/07/09 03:17:40;;;;;;;2.88;2.67;;;;;;;14.65;85.72;102043.34;4948332;28;20761;-67
2022/07/09 03:20:05;;;;;;;3.10;2.80;;;;;;;14.70;85.71;102027.81;4930003;28;20092;-67
2022/07/09 03:22:31;;;;;;;3.10;2.88;;;;;;;14.79;85.85;102035.00;4927644;28;20030;-67
2022/07/09 03:24:56;;;;;;;2.95;2.70;;;;;;;14.83;85.60;102032.91;4974012;28;20046;-66
2022/07/09 03:27:21;;;;;;;2.55;2.38;;;;;;;14.85;85.87;102034.47;4963126;28;20701;-68
2022/07/09 03:29:47;;;;;;;2.80;2.60;;;;;;;14.95;85.67;102026.53;4952381;28;20006;-69
2022/07/09 03:32:12;;;;;;;2.70;2.50;;;;;;;15.06;85.27;102034.44;4963143;28;20010;-68
2022/07/09 03:34:38;;;;;;;2.75;2.55;;;;;;;15.11;84.66;102031.34;4966943;28;20018;-68
2022/07/09 03:37:03;;;;;;;2.50;2.40;;;;;;;15.07;84.82;102028.13;4983834;28;20467;-68
2022/07/09 03:39:29;;;;;;;2.50;2.38;;;;;;;15.06;85.02;102034.44;4966878;28;20281;-68
2022/07/09 03:41:54;;;;;;;2.75;2.53;;;;;;;15.02;85.12;102030.34;4978689;28;20041;-69
2022/07/09 03:44:20;;;;;;;3.20;2.45;;;;;;;15.01;85.31;102025.16;4966555;28;20466;-67
2022/07/09 03:46:45;;;;;;;2.42;2.22;;;;;;;14.97;85.29;102021.88;4981398;28;20343;-68
2022/07/09 03:49:11;;;;;;;2.13;2.03;;;;;;;14.91;84.93;102017.09;4987111;28;20022;-67
2022/07/09 03:51:36;;;;;;;2.55;2.35;;;;;;;14.91;84.68;102011.78;4963487;28;20038;-67
2022/07/09 03:54:02;;;;;;;2.53;2.42;;;;;;;14.84;85.13;102013.28;4966182;28;20969;-69
2022/07/09 03:56:27;;;;;;;2.38;2.28;;;;;;;14.82;84.81;102017.91;4983204;28;20091;-67
2022/07/09 03:58:53;;;;;;;2.70;2.50;;;;;;;14.79;84.98;102018.16;4984125;28;20044;-67
2022/07/09 04:01:18;;;;;;;2.53;2.20;;;;;;;14.81;84.96;102018.91;4982267;28;20800;-66
2022/07/09 04:03:44;;;;;;;2.45;2.30;;;;;;;14.72;85.09;102009.84;4982444;28;20010;-68
2022/07/09 04:06:10;;;;;;;3.42;2.28;;;;;;;14.72;85.06;102017.84;4972508;28;20199;-67
2022/07/09 04:08:35;;;;;;;2.72;2.35;;;;;;;14.64;85.25;102013.19;5002766;28;20395;-67
2022/07/09 04:11:01;;;;;;;2.88;2.53;;;;;;;14.64;85.35;102020.31;4989381;28;20514;-67
2022/07/09 04:13:26;;;;;;;5.28;2.38;;;;;;;14.68;84.98;102025.28;4979487;28;20026;-67
2022/07/09 04:15:52;;;;;;;2.30;2.20;;;;;;;14.57;85.80;102020.00;4984865;28;20299;-67
2022/07/09 04:18:17;;;;;;;2.63;2.42;;;;;;;14.63;85.96;102026.66;4981326;28;20030;-69
2022/07/09 04:20:43;;;;;;;2.72;2.53;;;;;;;14.72;85.33;102024.03;4966248;28;20002;-66
2022/07/09 04:23:09;;;;;;;3.88;2.17;;;;;;;14.94;85.13;102022.16;4983716;28;20083;-67
2022/07/09 04:25:34;;;;;;;2.22;2.13;;;;;;;14.95;85.02;102023.84;4964326;28;20038;-67
2022/07/09 04:27:59;;;;;;;2.65;2.22;;;;;;;14.90;85.55;102028.75;4981499;28;20911;-66
2022/07/09 04:30:26;;;;;;;4.30;2.97;;;;;;;14.89;85.39;102033.25;4966467;28;20018;-66
2022/07/09 04:32:51;;;;;;;2.67;2.47;;;;;;;14.74;85.92;102032.72;4949482;28;20033;-67
2022/07/09 04:35:17;;;;;;;2.88;2.60;;;;;;;14.79;85.66;102028.81;4964887;28;20046;-69
2022/07/09 04:37:43;;;;;;;2.50;2.40;;;;;;;14.74;85.93;102027.41;4965509;28;20178;-66
2022/07/09 04:40:08;;;;;;;2.75;2.38;;;;;;;14.76;85.62;102032.59;4964851;28;20021;-67
2022/07/09 04:42:34;;;;;;;2.63;2.25;;;;;;;14.80;85.98;102031.34;4963734;28;20507;-68
2022/07/09 04:44:59;;;;;;;2.42;2.20;;;;;;;14.84;85.86;102039.94;4982159;28;20052;-66
2022/07/09 04:47:25;;;;;;;3.05;2.55;;;;;;;14.89;85.85;102037.69;4960890;28;20022;-67
2022/07/09 04:49:50;;;;;;;3.90;2.22;;;;;;;14.97;85.69;102043.22;4960756;28;20018;-67
2022/07/09 04:52:19;;;;;;;3.83;2.63;;;;;;;15.20;84.97;102040.34;4976371;28;20038;-67
2022/07/09 04:54:45;;;;;;;4.57;2.95;;;;;;;15.27;84.82;102038.81;4953170;28;20658;-68
2022/07/09 04:57:10;;;;;;;3.95;2.90;;;;;;;15.36;84.46;102043.34;4940062;28;20014;-66
2022/07/09 04:59:35;;;;;;;3.83;2.83;;;;;;;15.31;84.31;102034.06;4956407;28;20027;-67
2022/07/09 05:02:01;;;;;;;3.05;2.80;;;;;;;15.42;84.30;102031.28;4975073;28;20256;-65
2022/07/09 05:04:26;;;;;;;4.43;2.60;;;;;;;15.39;84.20;102036.91;4978142;28;20002;-65
2022/07/09 05:06:52;;;;;;;2.67;2.47;;;;;;;15.47;84.26;102039.75;4957080;28;20297;-65
2022/07/09 05:09:17;;;;;;;2.58;2.30;;;;;;;15.46;84.36;102036.22;4941628;28;20022;-66
2022/07/09 05:11:42;;;;;;;4.00;2.63;;;;;;;15.56;84.17;102028.22;4945809;28;20367;-66
2022/07/09 05:14:08;;;;;;;2.88;2.33;;;;;;;15.66;83.95;102030.06;4934442;28;20359;-65
2022/07/09 05:16:34;;;;;;;2.63;2.47;;;;;;;15.75;83.76;102037.22;4963990;28;20741;-68
2022/07/09 05:18:59;;;;;;;2.60;2.40;;;;;;;15.91;83.26;102032.22;4946012;28;20129;-66
2022/07/09 05:21:25;;;;;;;3.53;2.58;;;;;;;15.95;83.23;102022.13;4965797;28;20476;-66
2022/07/09 05:23:50;;;;;;;3.15;2.85;;;;;;;16.02;83.03;102028.59;4963320;28;20022;-66
2022/07/09 05:26:16;;;;;;;3.72;2.78;;;;;;;16.04;83.02;102031.13;4981945;28;20017;-67
2022/07/09 05:28:41;;;;;;;4.03;2.80;;;;;;;16.12;83.04;102026.75;4980033;28;20423;-66
2022/07/09 05:31:07;;;;;;;2.85;2.42;;;;;;;16.26;82.97;102032.66;4966213;28;20567;-66
2022/07/09 05:33:32;;;;;;;3.00;2.80;;;;;;;16.39;83.00;102027.84;4976339;28;20053;-66
2022/07/09 05:35:57;;;;;;;2.90;2.80;;;;;;;16.52;82.58;102032.03;4975443;28;20596;-66
2022/07/09 05:38:23;;;;;;;5.15;3.38;;;;;;;16.63;82.54;102031.88;4986323;28;20491;-66
2022/07/09 05:40:48;;;;;;;3.55;3.30;;;;;;;16.72;82.56;102030.97;4960537;28;20020;-67
2022/07/09 05:43:14;;;;;;;4.40;3.47;;;;;;;16.85;82.55;102027.13;4984780;28;20014;-66
2022/07/09 05:45:39;;;;;;;6.32;3.85;;;;;;;16.93;82.25;102027.28;4979854;28;20022;-67
2022/07/09 05:48:05;;;;;;;7.43;4.13;;;;;;;17.00;81.95;102020.34;4973280;28;20193;-66
2022/07/09 05:50:30;;;;;;;4.55;4.18;;;;;;;17.09;81.54;102019.47;4962289;28;20010;-66
2022/07/09 05:52:56;;;;;;;6.20;4.07;;;;;;;17.24;81.00;102019.81;4954151;28;20395;-67
2022/07/09 05:55:21;;;;;;;5.00;3.72;;;;;;;17.33;80.39;102018.91;4972213;28;20030;-67
2022/07/09 05:57:47;;;;;;;5.93;4.82;;;;;;;17.31;79.50;102025.41;4963191;28;20014;-66
2022/07/09 06:00:12;;;;;;;6.70;4.78;;;;;;;17.41;78.97;102031.53;4981576;28;20095;-66
2022/07/09 06:02:38;;;;;;;6.43;4.85;;;;;;;17.52;79.37;102050.03;4979726;28;21170;-67
2022/07/09 06:05:03;;;;;;;6.80;6.10;;;;;;;17.64;79.03;102053.38;4980914;28;20018;-66
2022/07/09 06:07:29;;;;;;;9.60;8.57;;;;;;;17.79;78.53;102047.50;4951242;28;20153;-66
2022/07/09 06:09:54;;;;;;;12.73;9.90;;;;;;;17.93;77.79;102040.78;4946808;28;20007;-66
2022/07/09 06:12:19;;;;;;;12.90;10.15;;;;;;;18.07;77.42;102042.91;4966304;28;20462;-66
2022/07/09 06:14:45;;;;;;;12.70;9.57;;;;;;;18.15;76.63;102045.66;4972743;28;20042;-65
2022/07/09 06:17:10;;;;;;;10.82;9.73;;;;;;;18.23;76.41;102042.19;4982747;28;20029;-67
2022/07/09 06:19:36;;;;;;;12.40;11.10;;;;;;;18.27;75.96;102046.25;4986467;28;20092;-65
2022/07/09 06:22:01;;;;;;;11.55;10.07;;;;;;;18.30;75.66;102040.59;4963670;28;20421;-66
2022/07/09 06:24:27;;;;;;;12.82;11.35;;;;;;;18.34;75.69;102035.75;4981418;28;20833;-66
2022/07/09 06:26:52;;;;;;;12.77;11.45;;;;;;;18.30;75.93;102039.75;4948911;28;20928;-66
2022/07/09 06:29:18;;;;;;;13.40;11.13;;;;;;;18.28;76.24;102031.03;4965222;28;20911;-65
2022/07/09 06:31:44;;;;;;;15.35;10.00;;;;;;;18.33;76.29;102034.94;4945717;28;20035;-67
2022/07/09 06:34:10;;;;;;;14.07;10.32;;;;;;;18.37;76.38;102024.72;4940246;28;20034;-67
2022/07/09 06:36:35;;;;;;;11.02;9.88;;;;;;;18.38;76.14;102022.91;4944340;28;20041;-66
2022/07/09 06:41:45;;;;;;;13.85;10.68;;;;;;;18.46;75.49;102026.47;4959696;28;20328;-67
2022/07/09 06:44:10;;;;;;;14.00;10.30;;;;;;;18.57;75.54;102024.50;4931219;28;20789;-67
2022/07/09 06:46:38;;;;;;;11.63;9.75;;;;;;;18.61;75.65;102021.34;4951391;28;20136;-66
2022/07/09 06:49:03;;;;;;;16.08;11.27;;;;;;;18.61;74.88;102020.53;4945957;28;20278;-67
2022/07/09 06:51:29;;;;;;;14.20;10.40;;;;;;;18.66;74.26;102019.03;4949018;28;21066;-68
2022/07/09 06:53:54;;;;;;;11.75;10.13;;;;;;;18.81;73.67;102031.84;4942604;28;20037;-67
2022/07/09 06:56:20;;;;;;;10.32;9.32;;;;;;;18.80;73.16;102022.97;4955475;28;20010;-67
2022/07/09 06:58:45;;;;;;;11.40;10.20;;;;;;;18.80;73.54;102028.34;4940287;28;20403;-67
2022/07/09 07:01:10;;;;;;;10.38;9.32;;;;;;;19.07;72.63;102022.97;4939045;28;20430;-68
2022/07/09 07:03:36;;;;;;;12.85;9.30;;;;;;;19.03;72.00;102025.13;4962014;28;20046;-67
2022/07/09 07:06:01;;;;;;;9.70;8.85;;;;;;;19.22;70.88;102022.19;4952301;28;20227;-67
2022/07/09 07:08:27;;;;;;;9.85;8.20;;;;;;;19.08;70.97;102022.81;4966097;28;20419;-67
2022/07/09 07:10:52;;;;;;;7.45;6.85;;;;;;;19.25;69.51;102023.72;4973274;28;20284;-68
2022/07/09 07:13:17;;;;;;;6.80;6.20;;;;;;;19.28;69.42;102025.22;4962022;28;20027;-67
2022/07/09 07:15:44;;;;;;;7.80;7.10;;;;;;;19.29;68.83;102029.56;4948592;28;20346;-67
2022/07/09 07:18:10;;;;;;;6.30;5.75;;;;;;;19.44;68.44;102035.16;4981048;28;20040;-69
2022/07/09 07:20:35;;;;;;;7.40;6.20;;;;;;;19.53;69.04;102029.66;4977763;28;20010;-66
2022/07/09 07:23:00;;;;;;;6.68;6.03;;;;;;;19.67;69.29;102038.06;4979374;28;20026;-68
2022/07/09 07:25:26;;;;;;;7.95;6.53;;;;;;;19.71;68.18;102040.25;4972809;28;20097;-67
2022/07/09 07:27:51;;;;;;;6.90;6.30;;;;;;;19.77;67.62;102025.34;4995320;28;20153;-66
2022/07/09 07:30:17;;;;;;;6.40;5.80;;;;;;;19.89;67.14;102032.06;4959641;28;20018;-68
2022/07/09 07:32:42;;;;;;;6.40;5.70;;;;;;;20.03;66.78;102035.09;4965086;28;20025;-66
2022/07/09 07:35:08;;;;;;;9.43;6.05;;;;;;;20.03;67.06;102029.72;4947968;28;20741;-65
2022/07/09 07:37:33;;;;;;;5.93;5.47;;;;;;;20.14;67.19;102029.41;4983924;28;20121;-67
2022/07/09 07:39:59;;;;;;;5.88;4.68;;;;;;;20.18;68.36;102022.69;4992078;28;20320;-66
2022/07/09 07:42:24;;;;;;;6.75;5.85;;;;;;;20.11;66.80;102032.41;4995429;28;20024;-67
2022/07/09 07:44:49;;;;;;;6.18;5.40;;;;;;;20.11;67.41;102032.41;4949307;28;20025;-69
2022/07/09 07:47:15;;;;;;;7.85;5.60;;;;;;;20.15;66.80;102032.91;4984082;28;20014;-68
2022/07/09 07:49:40;;;;;;;5.30;4.80;;;;;;;20.16;66.51;102029.22;4964326;28;20025;-67
2022/07/09 07:52:06;;;;;;;7.18;6.45;;;;;;;20.22;66.17;102032.06;4965450;28;21226;-68
2022/07/09 07:54:31;;;;;;;9.98;6.15;;;;;;;20.34;65.82;102020.97;4981800;28;20450;-67
2022/07/09 07:56:57;;;;;;;7.53;6.82;;;;;;;20.32;66.06;102020.28;4968527;28;20269;-67
2022/07/09 07:59:22;;;;;;;9.75;6.97;;;;;;;20.17;66.20;102021.00;4975899;28;20049;-65
2022/07/09 08:01:48;;;;;;;6.70;5.22;;;;;;;20.20;66.90;102027.88;4987518;28;20868;-67
2022/07/09 08:04:13;;;;;;;6.70;5.88;;;;;;;20.20;66.09;102033.25;4948648;28;20009;-63
2022/07/09 08:06:39;;;;;;;6.18;5.32;;;;;;;20.32;65.48;102033.72;4957029;28;20048;-65
2022/07/09 08:09:04;;;;;;;5.07;4.50;;;;;;;20.42;64.23;102029.03;4969727;28;20014;-66
2022/07/09 08:11:30;;;;;;;4.85;4.40;;;;;;;20.65;65.14;102031.84;4984253;28;20002;-66
2022/07/09 08:13:55;;;;;;;4.63;3.60;;;;;;;20.83;62.86;102031.66;4976149;28;20020;-67
2022/07/09 08:16:21;;;;;;;3.40;3.10;;;;;;;20.92;61.29;102033.28;4962462;28;20997;-67
2022/07/09 08:18:46;;;;;;;4.70;3.47;;;;;;;20.79;61.29;102033.00;4963620;28;20025;-66
2022/07/09 08:21:11;;;;;;;2.72;2.53;;;;;;;20.87;61.97;102022.22;4939822;28;20014;-67
2022/07/09 08:23:51;;;;;;;3.55;2.53;;;;;;;21.20;63.22;102021.25;4953154;28;20006;-67
2022/07/09 08:26:18;;;;;;;2.42;2.33;;;;;;;21.33;61.09;102018.78;4986051;28;20833;-66
2022/07/09 08:28:43;;;;;;;2.75;2.10;;;;;;;21.46;59.99;102023.59;4976413;28;20118;-67
2022/07/09 08:31:09;;;;;;;2.40;2.20;;;;;;;21.59;58.98;102021.19;4959752;28;20067;-66
2022/07/09 08:33:34;;;;;;;2.33;2.13;;;;;;;21.70;59.31;102022.66;4974766;28;20133;-68
2022/07/09 08:36:00;;;;;;;3.85;2.78;;;;;;;21.72;58.18;102025.16;5002426;28;20096;-66
2022/07/09 08:38:25;;;;;;;3.15;2.83;;;;;;;21.80;59.59;102019.72;4999383;28;20184;-67
2022/07/09 08:40:50;;;;;;;2.67;2.47;;;;;;;22.10;59.39;102017.09;4999623;27;20854;-67
2022/07/09 08:43:16;;;;;;;4.43;3.08;;;;;;;22.37;59.15;102010.31;4975660;28;20017;-66
2022/07/09 08:45:43;;;;;;;3.33;2.60;;;;;;;22.47;55.93;102002.75;5003857;28;20131;-67
2022/07/09 08:48:08;;;;;;;2.55;2.30;;;;;;;22.67;57.06;102006.78;4983945;28;20027;-68
2022/07/09 08:50:34;;;;;;;3.13;2.30;;;;;;;22.78;54.56;102009.00;5002131;28;20251;-67
2022/07/09 08:53:00;;;;;;;3.05;2.40;;;;;;;22.84;54.26;102008.25;4967290;28;20021;-64
2022/07/09 08:55:28;;;;;;;3.83;2.40;;;;;;;22.96;54.85;102005.94;4967811;28;20307;-66
2022/07/09 08:57:53;;;;;;;3.05;2.50;;;;;;;22.85;56.18;102004.53;4955965;28;20895;-66
2022/07/09 09:00:19;;;;;;;3.10;2.50;;;;;;;22.93;54.37;102012.53;4946231;28;20123;-66
2022/07/09 09:02:44;;;;;;;1.58;1.48;;;;;;;22.97;52.35;102000.34;4943497;28;20019;-68
2022/07/09 09:05:13;;;;;;;2.25;2.03;;;;;;;23.01;51.38;101997.25;4947827;28;21005;-67
2022/07/09 09:07:39;;;;;;;2.58;1.70;;;;;;;23.10;50.73;101993.44;4967927;28;20836;-65
2022/07/09 09:10:05;;;;;;;2.00;1.80;;;;;;;23.29;51.48;101990.13;4981789;28;20609;-66
2022/07/09 09:12:30;;;;;;;2.38;1.70;;;;;;;23.14;50.55;101986.63;4968148;28;20079;-67
2022/07/09 09:14:56;;;;;;;2.22;1.80;;;;;;;23.11;50.67;101968.97;4966056;28;20049;-66
2022/07/09 09:17:21;;;;;;;2.10;2.00;;;;;;;23.24;53.18;101970.13;4983974;28;20931;-66
2022/07/09 09:19:46;;;;;;;3.40;1.77;;;;;;;23.45;50.50;101967.47;4967381;28;20115;-67
2022/07/09 09:22:15;;;;;;;2.20;1.80;;;;;;;23.72;51.47;101980.38;5004028;28;20998;-66
2022/07/09 09:24:42;;;;;;;2.20;1.55;;;;;;;23.92;49.26;101967.06;4968839;28;20056;-66
2022/07/09 09:27:07;;;;;;;2.13;1.65;;;;;;;24.17;50.44;101962.06;4962417;28;20015;-65
2022/07/09 09:29:33;;;;;;;2.00;1.90;;;;;;;24.14;49.99;101960.59;4960098;28;20080;-66
2022/07/09 09:32:08;;;;;;;1.60;1.50;;;;;;;24.03;48.03;101953.00;4938995;28;20018;-66
2022/07/09 09:34:35;;;;;;;2.80;2.60;;;;;;;24.27;48.27;101946.31;4952933;28;20034;-66
2022/07/09 09:37:01;;;;;;;4.20;3.08;;;;;;;24.67;48.77;101964.66;4955646;28;20345;-67
2022/07/09 09:39:29;;;;;;;1.67;1.60;;;;;;;24.22;48.06;101954.16;4960677;28;20792;-66
2022/07/09 09:41:55;;;;;;;1.85;1.48;;;;;;;23.77;47.53;101953.59;4949790;28;20487;-67
2022/07/09 09:44:23;;;;;;;1.25;1.15;;;;;;;23.86;48.42;101951.59;4959127;28;20015;-65
2022/07/09 09:46:48;;;;;;;1.10;1.10;;;;;;;24.21;46.82;101944.38;4953883;28;20021;-67
2022/07/09 09:49:15;;;;;;;1.35;1.25;;;;;;;24.00;49.10;101943.41;4961352;28;20018;-65
2022/07/09 09:51:47;;;;;;;2.28;1.38;;;;;;;24.12;50.02;101948.28;4942980;28;20507;-65
2022/07/09 09:54:13;;;;;;;1.20;1.20;;;;;;;24.28;48.78;101942.56;4963109;28;20383;-66
2022/07/09 09:56:39;;;;;;;1.15;1.15;;;;;;;24.40;47.67;101942.84;4964363;28;20569;-66
2022/07/09 09:59:04;;;;;;;1.48;1.38;;;;;;;24.53;46.11;101947.47;4964798;28;20275;-66
2022/07/09 10:01:30;;;;;;;1.35;1.25;;;;;;;25.02;45.23;101941.03;4977945;28;20147;-65
2022/07/09 10:03:55;;;;;;;1.30;1.20;;;;;;;25.39;45.42;101935.31;4981444;28;20338;-67
2022/07/09 10:06:21;;;;;;;1.20;1.20;;;;;;;25.93;45.64;101941.56;4971040;28;20014;-66
2022/07/09 10:08:46;;;;;;;1.00;1.00;;;;;;;26.05;44.58;101933.66;4959845;28;20014;-66
2022/07/09 10:11:12;;;;;;;1.23;1.23;;;;;;;25.70;43.04;101929.25;4961260;28;20022;-66
2022/07/09 10:13:38;;;;;;;0.90;0.88;;;;;;;25.58;44.41;101930.97;4962749;28;20797;-67
2022/07/09 10:16:03;;;;;;;1.00;0.90;;;;;;;25.61;43.37;101926.97;4959878;28;21089;-66
2022/07/09 10:18:29;;;;;;;1.33;1.15;;;;;;;25.52;43.79;101929.91;4958734;28;20019;-66
2022/07/09 10:20:57;;;;;;;1.50;0.90;;;;;;;25.23;43.41;101924.81;4961659;28;20132;-66
2022/07/09 10:23:23;;;;;;;1.75;1.13;;;;;;;24.88;45.12;101917.66;4962178;28;20010;-67
2022/07/09 10:25:52;;;;;;;1.83;0.75;;;;;;;24.84;47.08;101913.69;4943296;28;20017;-67
2022/07/09 10:28:18;;;;;;;0.70;0.70;;;;;;;24.84;46.59;101916.41;4960766;28;20784;-67
2022/07/09 10:30:44;;;;;;;0.70;0.70;;;;;;;25.20;45.33;101915.25;4982156;28;20029;-67
2022/07/09 10:33:13;;;;;;;0.60;0.60;;;;;;;25.63;43.74;101908.63;4978059;28;20067;-66
2022/07/09 10:35:46;;;;;;;0.57;0.57;;;;;;;26.22;41.86;101901.47;4977464;28;20026;-63
2022/07/09 10:38:12;;;;;;;0.60;0.60;;;;;;;26.67;40.94;101901.50;4980565;28;20906;-67
2022/07/09 10:40:48;;;;;;;2.67;0.50;;;;;;;26.80;40.73;101907.97;4983661;28;20017;-69
2022/07/09 10:43:14;;;;;;;0.73;0.60;;;;;;;26.77;41.13;101900.25;4964779;28;20049;-65
2022/07/09 10:45:40;;;;;;;1.00;0.70;;;;;;;26.54;43.99;101893.44;4975845;28;20025;-66
2022/07/09 10:48:06;;;;;;;0.57;0.52;;;;;;;26.55;40.62;101886.94;4982483;28;20987;-68
2022/07/09 10:50:33;;;;;;;2.83;0.73;;;;;;;26.78;40.31;101899.19;4978882;28;20026;-65
2022/07/09 10:52:59;;;;;;;0.70;0.70;;;;;;;26.75;40.95;101889.63;4961698;28;20978;-66
2022/07/09 10:55:27;;;;;;;3.30;0.70;;;;;;;26.38;41.41;101889.31;4984852;28;21068;-65
2022/07/09 10:57:53;;;;;;;0.70;0.70;;;;;;;26.17;41.54;101874.16;4969687;28;20022;-66
2022/07/09 11:00:20;;;;;;;1.25;0.65;;;;;;;26.30;42.83;101876.84;4978475;28;20130;-65
2022/07/09 11:02:59;;;;;;;0.80;0.80;;;;;;;26.17;43.33;101871.44;4947452;28;20037;-66
2022/07/09 11:05:25;;;;;;;0.82;0.70;;;;;;;25.88;44.00;101879.00;4983498;28;20148;-65
2022/07/09 11:07:58;;;;;;;1.42;0.80;;;;;;;25.62;43.22;101885.28;4941672;28;20033;-65
2022/07/09 11:10:25;;;;;;;0.70;0.70;;;;;;;25.48;44.84;101881.72;4934785;28;20551;-67
2022/07/09 11:12:51;;;;;;;0.75;0.73;;;;;;;25.56;44.91;101870.69;4962845;28;20065;-66
2022/07/09 11:15:17;;;;;;;0.70;0.70;;;;;;;25.70;44.53;101869.63;4945157;28;20048;-67
2022/07/09 11:17:42;;;;;;;0.70;0.70;;;;;;;26.04;44.15;101861.47;4991982;28;20029;-67
2022/07/09 11:20:10;;;;;;;0.82;0.82;;;;;;;26.09;43.60;101869.81;4984402;28;20010;-66